Smith Valley, Nevada Weather observations

Data are for 10 minute period ending at time listed.
 Day   Time   Solar   Ave.   Ave.  Ave.  Vector  Max.   Baro.   Total    
  of    of     Rad.   Air    Rel.  Wind   Wind   Wind  Press.  Precip.   
Year   Day            Temp.  Hum.  Speed  Dir.   Gust                    
2016   (PST)  Kw/m2    F      %     mph   deg.    mph    mb.     in.     
-------------------------------------------------------------------------
 345    0:00   0.00   51.2    48   12.3   171    23.5   852.1    0.00 
 345    0:10   0.00   51.9    48   11.8   163    16.4   852.1    0.00 
 345    0:20   0.00   51.5    48   11.6   129    19.6   852.0    0.00 
 345    0:30   0.00   52.4    48   11.6   129    19.3   851.9    0.00 
 345    0:40   0.00   51.8    49   12.3   140    18.9   851.5    0.00 
 345    0:50   0.00   51.6    50    9.1   153    14.5   851.5    0.00 
 345    1:00   0.00   53.2    50   11.6   179    21.1   851.4    0.00 
 345    1:10   0.00   55.6    47   13.3   192    24.1   851.2    0.00 
 345    1:20   0.00   56.6    46   15.7   205    22.6   850.9    0.00 
 345    1:30   0.00   56.2    47    8.2   240    14.2   850.9    0.00 
 345    1:40   0.00   56.9    45    6.1   226    17.0   850.7    0.00 
 345    1:50   0.00   57.3    45    7.8   270    28.5   850.6    0.00 
 345    2:00   0.00   57.0    47   16.6   241    27.5   850.1    0.00 
 345    2:10   0.00   56.3    49   19.6   246    37.8   849.1    0.00 
 345    2:20   0.00   57.5    46   24.7   241    40.6   848.7    0.00 
 345    2:30   0.00   58.7    42   33.4   236    48.7   848.3    0.00 
 345    2:40   0.00   58.9    42   30.9   234    42.5   848.5    0.00 
 345    2:50   0.00   58.5    43   25.2   240    45.0   848.6    0.00 
 345    3:00   0.00   57.5    46   27.2   248    52.8   848.2    0.00 
 345    3:10   0.00   56.2    49   27.9   245    44.3   847.7    0.00 
 345    3:20   0.00   56.2    48   35.4   251    51.1   847.3    0.00 
 345    3:30   0.00   55.9    48   32.8   246    51.2   847.4    0.00 
 345    3:40   0.00   55.6    48   36.5   248    59.5   847.4    0.00 
 345    3:50   0.00   54.7    52   36.5   248    50.3   847.4    0.00 
 345    4:00   0.00   54.7    51   36.7   247    57.5   847.1    0.00 
 345    4:10   0.00   54.7    48   36.9   247    52.3   847.1    0.00 
 345    4:20   0.00   54.1    48   34.1   245    53.3   847.0    0.00 
 345    4:30   0.00   53.6    49   33.9   241    50.6   846.9    0.00 
 345    4:40   0.00   53.6    47   34.2   245    48.7   846.6    0.00 
 345    4:50   0.00   53.8    44   36.4   241    63.7   846.6    0.00 
 345    5:00   0.00   53.8    47   41.3   237    60.7   846.5    0.00 
 345    5:10   0.00   53.8    48   45.0   238    65.8   846.8    0.00 
 345    5:20   0.00   53.5    48   44.5   235    67.4   847.0    0.00 
 345    5:30   0.00   53.7    49   45.2   237    65.6   847.0    0.00 
 345    5:40   0.00   54.0    48   45.2   235    66.9   847.2    0.00 
 345    5:50   0.00   54.6    46   45.4   237    64.2   847.1    0.00 
 345    6:00   0.00   55.0    44   39.2   233    54.8   847.5    0.00 
 345    6:10   0.00   55.0    44   41.2   235    56.8   847.8    0.00 
 345    6:20   0.00   54.6    45   38.8   234    56.8   847.9    0.00 
 345    6:30   0.00   54.7    44   37.4   233    54.1   848.0    0.00 
 345    6:40   0.00   55.3    41   39.1   234    56.6   847.8    0.00 
 345    6:50   0.00   55.1    41   38.3   237    52.2   847.8    0.00 
 345    7:00   0.00   54.6    41   31.9   235    49.6   847.9    0.00 
 345    7:10   0.00   54.2    42   37.3   232    54.1   847.8    0.00 
 345    7:20   0.01   54.3    42   37.1   232    56.6   848.0    0.00 
 345    7:30   0.02   53.7    45   34.0   230    56.0   848.3    0.00 
 345    7:40   0.02   53.3    45   28.4   230    46.9   848.6    0.00 
 345    7:50   0.04   53.5    45   26.9   226    42.1   848.8    0.00 
 345    8:00   0.04   54.0    44   28.4   226    41.0   849.0    0.00 
 345    8:10   0.05   54.5    43   26.7   227    42.0   849.7    0.00 
 345    8:20   0.06   54.1    44   21.5   231    35.8   850.3    0.00 
 345    8:30   0.07   54.0    44   17.9   225    31.0   850.7    0.00 
 345    8:40   0.08   54.0    46   15.1   222    25.9   850.9    0.00 
 345    8:50   0.09   54.4    45   11.4   215    21.7   851.2    0.00 
 345    9:00   0.10   54.7    45   12.3   218    25.6   851.3    0.00 
 345    9:10   0.14   54.6    46   11.2   200    20.3   851.5    0.00 
 345    9:20   0.23   55.7    44   18.0   218    36.2   851.5    0.00 
 345    9:30   0.31   56.2    44   17.2   211    25.5   851.5    0.00 
 345    9:40   0.23   55.9    44   15.5   220    27.5   851.7    0.00 
 345    9:50   0.18   55.4    45   17.6   219    29.0   851.7    0.00 
 345   10:00   0.30   55.6    46   18.3   221    30.7   851.6    0.00 
 345   10:10   0.39   57.1    44   18.7   218    30.8   851.2    0.00 
 345   10:20   0.41   57.6    42   20.8   219    31.3   850.9    0.00 
 345   10:30   0.42   58.3    40   20.4   221    33.0   850.9    0.00 
 345   10:40   0.44   58.4    39   22.6   222    33.5   850.9    0.00 
 345   10:50   0.45   59.1    38   21.6   225    34.6   851.0    0.00 
 345   11:00   0.45   58.7    40   23.9   232    35.4   850.9    0.00 
 345   11:10   0.45   58.5    40   21.7   229    31.9   850.7    0.00 
 345   11:20   0.43   58.1    42   24.0   229    39.4   850.2    0.00 
 345   11:30   0.47   58.9    40   27.4   230    42.1   850.0    0.00 
 345   11:40   0.47   59.2    40   25.6   229    34.3   849.5    0.00 
 345   11:50   0.49   59.3    40   26.0   229    39.8   849.3    0.00 
 345   12:00   0.46   59.5    40   24.6   232    34.7   849.1    0.00 
 345   12:10   0.45   59.9    40   26.5   235    39.6   848.9    0.00 
 345   12:20   0.40   59.9    41   26.5   235    37.6   848.7    0.00 
 345   12:30   0.41   59.5    41   26.0   236    42.5   848.7    0.00 
 345   12:40   0.43   59.3    43   27.4   237    43.3   848.5    0.00 
 345   12:50   0.30   58.2    46   20.9   246    32.1   848.5    0.00 
 345   13:00   0.39   58.7    43   18.8   248    29.3   848.2    0.00 
 345   13:10   0.41   60.0    41   23.6   246    36.5   848.0    0.00 
 345   13:20   0.40   59.6    41   31.4   236    46.7   847.9    0.00 
 345   13:30   0.37   58.4    46   29.6   240    41.0   848.1    0.00 
 345   13:40   0.20   55.9    57   27.8   242    47.6   848.0    0.00 
 345   13:50   0.11   54.5    58   24.3   248    40.8   848.4    0.00 
 345   14:00   0.11   53.8    62   23.0   247    37.5   848.8    0.00 
 345   14:10   0.09   52.1    66   26.1   244    41.3   848.8    0.00 
 345   14:20   0.09   52.2    62   30.1   240    43.0   848.8    0.00 
 345   14:30   0.09   53.0    59   28.5   237    41.6   848.9    0.00 
 345   14:40   0.09   53.2    57   28.0   235    44.3   849.0    0.00 
 345   14:50   0.08   52.5    60   24.9   234    35.3   848.8    0.00 
 345   15:00   0.07   51.6    63   25.4   232    36.5   848.7    0.00 
 345   15:10   0.07   51.9    62   24.0   234    36.2   848.9    0.00 
 345   15:20   0.05   52.1    62   25.5   232    34.7   848.9    0.00 
 345   15:30   0.05   51.2    65   24.2   232    32.4   848.9    0.00 
 345   15:40   0.04   52.4    60   24.7   233    34.6   849.1    0.00 
 345   15:50   0.03   51.7    63   22.5   233    36.5   849.2    0.00 
 345   16:00   0.03   50.8    68   21.0   234    32.1   849.6    0.00 
 345   16:10   0.02   50.5    69   24.0   241    36.6   849.9    0.01 
 345   16:20   0.01   49.4    74   18.3   242    28.2   850.0    0.01 
 345   16:30   0.01   48.8    75   18.7   238    34.3   849.7    0.00 
 345   16:40   0.00   49.0    74   19.5   241    32.3   849.9    0.01 
 345   16:50   0.00   49.3    72   21.2   234    32.2   849.7    0.00 
 345   17:00   0.00   49.2    72   18.3   252    25.6   850.1    0.00 
 345   17:10   0.00   48.8    74   18.9   241    29.5   850.2    0.01 
 345   17:20   0.00   48.3    76   16.5   242    28.6   850.2    0.01 
 345   17:30   0.00   47.8    77   16.1   238    27.0   850.2    0.01 
 345   17:40   0.00   48.0    77   16.2   230    25.1   850.1    0.00 
 345   17:50   0.00   48.0    76   16.4   226    22.5   850.0    0.01 
 345   18:00   0.00   48.1    75   15.3   228    26.2   850.0    0.00 
 345   18:10   0.00   48.4    74   17.9   227    25.2   850.0    0.00 
 345   18:20   0.00   48.0    75   17.1   226    24.3   850.2    0.01 
 345   18:30   0.00   47.9    75   15.3   227    25.3   850.2    0.00 
 345   18:40   0.00   48.4    74   14.2   237    22.6   850.3    0.00 
 345   18:50   0.00   48.2    75   12.1   253    19.3   850.5    0.01 
 345   19:00   0.00   48.5    73   14.4   251    22.8   850.5    0.00 
 345   19:10   0.00   48.6    73   14.6   251    21.3   850.6    0.01 
 345   19:20   0.00   48.7    73   13.8   250    21.8   850.8    0.00 
 345   19:30   0.00   48.7    74   12.3   245    24.3   851.0    0.01 
 345   19:40   0.00   48.3    75   11.9   240    18.6   851.1    0.02 
 345   19:50   0.00   48.1    76   11.2   239    18.3   851.2    0.01 
 345   20:00   0.00   48.1    76   11.0   238    25.2   851.2    0.01 
 345   20:10   0.00   48.0    76   11.4   239    18.0   851.2    0.00 
 345   20:20   0.00   48.3    75   13.7   243    20.0   851.2    0.01 
 345   20:30   0.00   48.2    75   12.3   243    19.9   851.4    0.00 
 345   20:40   0.00   48.1    75   10.9   243    16.6   851.6    0.00 
 345   20:50   0.00   48.1    75   10.1   253    16.6   851.8    0.00 
 345   21:00   0.00   48.5    73   10.2   252    16.7   851.7    0.00 
 345   21:10   0.00   48.5    72    9.4   247    18.9   851.5    0.00 
 345   21:20   0.00   48.3    72    9.0   249    16.6   851.6    0.00 
 345   21:30   0.00   48.4    70    9.7   242    12.8   851.6    0.00 
 345   21:40   0.00   48.6    68   11.6   237    18.0   851.4    0.00 
 345   21:50   0.00   49.3    65   12.8   248    18.7   851.5    0.00 
 345   22:00   0.00   49.2    62   13.2   257    21.6   851.5    0.00 
 345   22:10   0.00   48.8    62   12.5   249    20.0   851.5    0.00 
 345   22:20   0.00   49.1    58   14.8   249    21.8   851.5    0.00 
 345   22:30   0.00   49.1    56   13.0   256    20.5   851.7    0.00 
 345   22:40   0.00   48.5    58   11.0   256    20.0   852.0    0.00 
 345   22:50   0.00   48.5    58   10.3   256    18.3   852.0    0.00 
 345   23:00   0.00   47.9    60   10.5   264    19.9   852.3    0.00 
 345   23:10   0.00   47.9    59   13.4   259    22.0   852.3    0.00 
 345   23:20   0.00   48.1    57   16.0   254    22.9   852.3    0.00 
 345   23:30   0.00   48.4    53   20.1   257    26.7   852.1    0.00 
 345   23:40   0.00   48.2    52   20.6   256    28.8   851.9    0.00 

Return to Smith Valley graphs page.


Western Regional Climate Center,wrcc@dri.edu